Time;durP1;ratioP1;P1;durP2;ratioP2;P2;SDS_P1;SDS_P2;PMS_P1;PMS_P2;Temp;Humidity;BMP_temperature;BMP_pressure;BME280_temperature;BME280_humidity;BME280_pressure;Samples;Min_cycle;Max_cycle;Signal;HPM_P1;HPM_P2
2023/11/11 00:00:36;;;;;;;1.83;1.30;;;8.20;99.90;;;;;;5039251;28;20459;-76
2023/11/11 00:03:05;;;;;;;2.50;0.87;;;8.20;99.90;;;;;;5043411;28;20442;-76
2023/11/11 00:05:31;;;;;;;2.03;1.10;;;8.30;99.90;;;;;;5026810;28;20526;-75
2023/11/11 00:07:57;;;;;;;2.30;1.43;;;8.30;99.90;;;;;;5067996;28;20451;-76
2023/11/11 00:10:23;;;;;;;2.43;1.57;;;8.30;99.90;;;;;;5045010;28;20815;-75
2023/11/11 00:12:49;;;;;;;1.73;1.30;;;8.30;99.90;;;;;;5035072;28;20442;-75
2023/11/11 00:15:15;;;;;;;1.27;1.17;;;8.30;99.90;;;;;;5047476;28;20303;-75
2023/11/11 00:17:41;;;;;;;3.33;1.27;;;8.30;99.90;;;;;;5046890;28;20669;-75
2023/11/11 00:20:12;;;;;;;3.23;1.00;;;8.40;99.90;;;;;;5024981;28;20465;-75
2023/11/11 00:22:43;;;;;;;1.40;1.30;;;8.40;99.90;;;;;;5045610;28;20216;-74
2023/11/11 00:25:09;;;;;;;1.23;0.90;;;8.40;99.90;;;;;;5052240;28;20556;-75
2023/11/11 00:27:35;;;;;;;2.10;1.07;;;8.40;99.90;;;;;;5047580;28;20537;-75
2023/11/11 00:30:05;;;;;;;2.20;1.20;;;8.40;99.90;;;;;;5028786;28;20533;-76
2023/11/11 00:32:31;;;;;;;0.90;0.90;;;8.40;99.90;;;;;;5062691;28;20208;-75
2023/11/11 00:34:56;;;;;;;1.53;0.97;;;8.40;99.90;;;;;;5043555;28;20458;-75
2023/11/11 00:37:23;;;;;;;2.20;1.30;;;8.40;99.90;;;;;;5035131;28;20477;-74
2023/11/11 00:39:49;;;;;;;4.00;1.23;;;8.40;99.90;;;;;;5041675;28;20228;-76
2023/11/11 00:42:15;;;;;;;0.93;0.80;;;8.40;99.90;;;;;;5061970;28;20504;-74
2023/11/11 00:44:44;;;;;;;2.03;0.90;;;8.30;99.90;;;;;;5047546;28;20454;-74
2023/11/11 00:47:13;;;;;;;0.93;0.87;;;8.40;99.90;;;;;;5045725;28;20215;-76
2023/11/11 00:49:41;;;;;;;2.03;0.90;;;8.40;99.90;;;;;;5066205;28;20473;-75
2023/11/11 00:52:07;;;;;;;1.67;0.77;;;8.30;99.90;;;;;;5030846;28;20458;-76
2023/11/11 00:54:33;;;;;;;2.30;0.87;;;8.40;99.90;;;;;;5046140;28;20458;-76
2023/11/11 00:57:00;;;;;;;1.20;0.93;;;8.30;99.90;;;;;;5041491;28;20508;-75
2023/11/11 00:59:28;;;;;;;0.90;0.70;;;8.20;99.90;;;;;;5044043;28;20462;-75
2023/11/11 01:01:54;;;;;;;1.03;0.93;;;8.30;99.90;;;;;;5030493;28;20473;-75
2023/11/11 01:04:20;;;;;;;1.80;0.90;;;8.30;99.90;;;;;;5040903;28;20462;-75
2023/11/11 01:06:45;;;;;;;1.13;0.90;;;8.30;99.90;;;;;;5063326;28;20231;-75
2023/11/11 01:09:13;;;;;;;1.23;0.63;;;8.30;99.90;;;;;;5044026;28;20587;-76
2023/11/11 01:11:41;;;;;;;0.83;0.80;;;8.40;99.90;;;;;;5039619;28;20758;-75
2023/11/11 01:14:07;;;;;;;2.47;0.90;;;8.30;99.90;;;;;;5046511;28;20473;-76
2023/11/11 01:16:33;;;;;;;3.00;0.87;;;8.40;99.90;;;;;;5055909;28;20842;-76
2023/11/11 01:18:59;;;;;;;9.93;0.60;;;8.30;99.90;;;;;;5030343;28;20991;-75
2023/11/11 01:21:25;;;;;;;0.93;0.40;;;8.20;99.90;;;;;;5044304;28;20472;-75
2023/11/11 01:23:51;;;;;;;0.40;0.30;;;8.10;99.90;;;;;;5025531;28;20259;-75
2023/11/11 01:26:17;;;;;;;0.40;0.30;;;8.00;99.90;;;;;;5046502;28;20244;-75
2023/11/11 01:28:43;;;;;;;0.30;0.20;;;7.90;99.90;;;;;;5042107;28;20254;-74
2023/11/11 01:31:09;;;;;;;0.40;0.30;;;7.80;99.90;;;;;;5043452;28;20447;-74
2023/11/11 01:33:35;;;;;;;0.40;0.30;;;7.80;99.90;;;;;;5042556;28;20454;-75
2023/11/11 01:36:04;;;;;;;0.40;0.40;;;7.80;99.90;;;;;;5043025;28;20475;-75
2023/11/11 01:38:30;;;;;;;0.50;0.50;;;7.70;99.90;;;;;;5063708;28;20466;-75
2023/11/11 01:40:56;;;;;;;2.10;0.50;;;7.70;99.90;;;;;;5043086;28;20485;-75
2023/11/11 01:43:23;;;;;;;0.50;0.40;;;7.70;99.90;;;;;;5027618;28;20963;-75
2023/11/11 01:45:51;;;;;;;0.40;0.30;;;7.70;99.90;;;;;;5045396;28;20457;-75
2023/11/11 01:48:17;;;;;;;3.10;0.40;;;7.70;99.90;;;;;;5046642;28;20458;-76
2023/11/11 01:50:43;;;;;;;0.40;0.30;;;7.70;99.90;;;;;;5066423;28;20473;-75
2023/11/11 01:53:10;;;;;;;0.83;0.40;;;7.60;99.90;;;;;;5048742;28;20223;-75
2023/11/11 01:55:36;;;;;;;0.40;0.40;;;7.60;99.90;;;;;;5063677;28;20466;-75
2023/11/11 01:58:04;;;;;;;0.60;0.53;;;7.60;99.90;;;;;;5049952;28;20461;-75
2023/11/11 02:00:35;;;;;;;0.40;0.30;;;7.40;99.90;;;;;;5048266;28;20450;-75
2023/11/11 02:03:02;;;;;;;0.50;0.30;;;7.40;99.90;;;;;;5047079;28;20458;-75
2023/11/11 02:05:28;;;;;;;2.00;0.43;;;7.30;99.90;;;;;;5048177;28;20449;-75
2023/11/11 02:07:57;;;;;;;0.40;0.30;;;7.40;99.90;;;;;;5046934;28;20454;-75
2023/11/11 02:10:24;;;;;;;0.43;0.40;;;7.40;99.90;;;;;;5048982;28;20469;-75
2023/11/11 02:12:50;;;;;;;0.40;0.40;;;7.40;99.90;;;;;;5029352;28;20461;-75
2023/11/11 02:15:17;;;;;;;0.40;0.40;;;7.20;99.90;;;;;;5049372;28;20462;-75
2023/11/11 02:17:43;;;;;;;1.13;0.40;;;7.20;99.90;;;;;;5048264;28;20512;-75
2023/11/11 02:20:12;;;;;;;0.40;0.33;;;7.20;99.90;;;;;;5049680;28;20458;-75
2023/11/11 02:22:39;;;;;;;0.40;0.40;;;7.10;99.90;;;;;;5032142;28;20454;-75
2023/11/11 02:25:08;;;;;;;0.40;0.40;;;7.10;99.90;;;;;;5039670;28;20469;-75
2023/11/11 02:27:34;;;;;;;0.40;0.40;;;7.00;99.90;;;;;;5043654;28;20501;-74
2023/11/11 02:30:02;;;;;;;0.30;0.27;;;7.00;99.90;;;;;;5057257;28;20545;-75
2023/11/11 02:32:29;;;;;;;0.40;0.30;;;6.90;99.90;;;;;;5040255;28;20446;-75
2023/11/11 02:34:55;;;;;;;0.50;0.40;;;6.80;99.90;;;;;;5044646;28;20526;-75
2023/11/11 02:37:21;;;;;;;0.60;0.30;;;6.90;99.90;;;;;;5040500;28;20880;-75
2023/11/11 02:39:46;;;;;;;0.40;0.30;;;6.80;99.90;;;;;;5068329;28;20316;-75
2023/11/11 02:42:12;;;;;;;0.40;0.30;;;6.90;99.90;;;;;;5064884;28;20283;-75
2023/11/11 02:44:37;;;;;;;0.30;0.23;;;6.90;99.90;;;;;;5058158;28;20298;-75
2023/11/11 02:47:03;;;;;;;0.40;0.40;;;6.80;99.90;;;;;;5037953;28;20686;-75
2023/11/11 02:49:29;;;;;;;0.80;0.40;;;6.80;99.90;;;;;;5049546;28;20300;-75
2023/11/11 02:51:55;;;;;;;0.40;0.40;;;6.80;99.90;;;;;;5033931;28;20303;-76
2023/11/11 02:54:20;;;;;;;0.37;0.30;;;6.80;99.90;;;;;;5049724;28;20212;-75
2023/11/11 02:56:46;;;;;;;0.40;0.33;;;6.90;99.90;;;;;;5074583;28;20246;-75
2023/11/11 02:59:12;;;;;;;0.83;0.50;;;6.90;99.90;;;;;;5032390;28;20227;-73
2023/11/11 03:01:37;;;;;;;0.50;0.40;;;6.80;99.90;;;;;;5056543;28;20239;-74
2023/11/11 03:04:03;;;;;;;0.70;0.53;;;6.90;99.90;;;;;;5030899;28;20304;-76
2023/11/11 03:06:29;;;;;;;0.60;0.57;;;6.90;99.90;;;;;;5049182;28;20212;-76
2023/11/11 03:08:55;;;;;;;2.37;1.00;;;6.90;99.90;;;;;;5049390;28;20293;-75
2023/11/11 03:11:21;;;;;;;3.80;1.03;;;6.90;99.90;;;;;;5038783;28;20270;-75
2023/11/11 03:13:48;;;;;;;0.60;0.50;;;6.90;99.90;;;;;;5051232;28;20327;-75
2023/11/11 03:16:14;;;;;;;1.83;0.73;;;6.90;99.90;;;;;;5055100;28;20235;-75
2023/11/11 03:18:41;;;;;;;1.57;0.73;;;6.90;99.90;;;;;;5051460;28;20454;-75
2023/11/11 03:21:07;;;;;;;0.90;0.70;;;6.90;99.90;;;;;;5051557;28;20443;-75
2023/11/11 03:23:33;;;;;;;0.80;0.60;;;6.90;99.90;;;;;;5067791;28;20211;-75
2023/11/11 03:25:59;;;;;;;0.80;0.63;;;6.90;99.90;;;;;;5052206;28;20453;-75
2023/11/11 03:28:25;;;;;;;0.60;0.60;;;6.90;99.90;;;;;;5051188;28;20226;-75
2023/11/11 03:30:51;;;;;;;0.90;0.80;;;6.90;99.90;;;;;;5036784;28;20237;-75
2023/11/11 03:33:17;;;;;;;0.80;0.80;;;6.90;99.90;;;;;;5046680;28;20511;-74
2023/11/11 03:35:43;;;;;;;0.60;0.60;;;6.80;99.90;;;;;;5045420;28;20221;-75
2023/11/11 03:38:09;;;;;;;1.43;0.80;;;6.80;99.90;;;;;;5071308;28;20458;-75
2023/11/11 03:40:35;;;;;;;0.90;0.90;;;6.80;99.90;;;;;;5064727;28;20208;-74
2023/11/11 03:43:01;;;;;;;0.97;0.97;;;6.80;99.90;;;;;;5069157;28;20447;-75
2023/11/11 03:45:27;;;;;;;3.37;0.80;;;6.80;99.90;;;;;;5056057;28;20453;-75
2023/11/11 03:47:53;;;;;;;0.93;0.73;;;6.70;99.90;;;;;;5038681;28;20457;-75
2023/11/11 03:50:18;;;;;;;1.00;0.80;;;6.70;99.90;;;;;;5048521;28;20251;-75
2023/11/11 03:52:44;;;;;;;1.20;1.10;;;6.70;99.90;;;;;;5039469;28;20241;-75
2023/11/11 03:55:10;;;;;;;0.83;0.83;;;6.80;99.90;;;;;;5044991;28;20211;-75
2023/11/11 03:57:36;;;;;;;0.80;0.80;;;6.80;99.90;;;;;;5073844;28;20207;-75
2023/11/11 04:00:09;;;;;;;1.10;0.97;;;6.70;99.90;;;;;;5063528;28;20686;-75
2023/11/11 04:02:38;;;;;;;2.17;1.20;;;6.70;99.90;;;;;;5047936;28;21069;-75
2023/11/11 04:05:05;;;;;;;1.20;1.13;;;6.70;99.90;;;;;;5048107;28;20450;-75
2023/11/11 04:07:32;;;;;;;1.17;1.07;;;6.60;99.90;;;;;;5046659;28;20473;-75
2023/11/11 04:09:58;;;;;;;1.00;1.00;;;6.60;99.90;;;;;;5048013;28;20532;-75
2023/11/11 04:12:24;;;;;;;6.43;1.37;;;6.60;99.90;;;;;;5054994;28;20446;-75
2023/11/11 04:14:50;;;;;;;0.93;0.90;;;6.60;99.90;;;;;;5034554;28;20447;-75
2023/11/11 04:17:16;;;;;;;2.07;1.03;;;6.60;99.90;;;;;;5050706;28;20303;-75
2023/11/11 04:19:43;;;;;;;1.20;1.10;;;6.60;99.90;;;;;;5034917;28;21043;-74
2023/11/11 04:22:09;;;;;;;1.43;1.13;;;6.60;99.90;;;;;;5030705;28;20450;-75
2023/11/11 04:24:34;;;;;;;4.50;1.20;;;6.60;99.90;;;;;;5044725;28;20827;-75
2023/11/11 04:27:00;;;;;;;1.33;1.23;;;6.60;99.90;;;;;;5043803;28;20693;-75
2023/11/11 04:29:26;;;;;;;0.80;0.80;;;6.60;99.90;;;;;;5032512;28;20232;-75
2023/11/11 04:31:51;;;;;;;0.97;0.97;;;6.60;99.90;;;;;;5041570;28;20227;-75
2023/11/11 04:34:19;;;;;;;1.23;1.13;;;6.50;99.90;;;;;;5054299;28;20216;-75
2023/11/11 04:36:44;;;;;;;1.37;1.27;;;6.50;99.90;;;;;;5042879;28;20286;-75
2023/11/11 04:39:10;;;;;;;1.03;0.93;;;6.50;99.90;;;;;;5050892;28;20460;-76
2023/11/11 04:41:36;;;;;;;1.60;1.33;;;6.50;99.90;;;;;;5035347;28;20225;-76
2023/11/11 04:44:02;;;;;;;1.20;1.10;;;6.50;99.90;;;;;;5044870;28;20221;-75
2023/11/11 04:46:28;;;;;;;1.13;1.10;;;6.50;99.90;;;;;;5039184;28;20304;-74
2023/11/11 04:48:54;;;;;;;1.80;1.40;;;6.50;99.90;;;;;;5024995;28;20232;-75
2023/11/11 04:51:20;;;;;;;1.07;1.07;;;6.50;99.90;;;;;;5049139;28;20466;-75
2023/11/11 04:53:45;;;;;;;4.00;1.70;;;6.50;99.90;;;;;;5021116;28;20216;-75
2023/11/11 04:56:11;;;;;;;1.50;1.40;;;6.50;99.90;;;;;;5030169;28;20243;-75
2023/11/11 04:58:38;;;;;;;1.37;1.27;;;6.50;99.90;;;;;;5021493;28;20307;-76
2023/11/11 05:01:05;;;;;;;2.10;1.40;;;6.50;99.90;;;;;;5044272;28;20208;-75
2023/11/11 05:03:31;;;;;;;1.73;1.63;;;6.50;99.90;;;;;;5044378;28;20482;-74
2023/11/11 05:05:57;;;;;;;2.00;1.27;;;6.50;99.90;;;;;;5069773;28;20511;-75
2023/11/11 05:08:23;;;;;;;2.43;1.90;;;6.50;99.90;;;;;;5052114;28;20454;-75
2023/11/11 05:10:49;;;;;;;4.57;1.87;;;6.50;99.90;;;;;;5069609;28;20448;-75
2023/11/11 05:13:19;;;;;;;1.53;1.43;;;6.50;99.90;;;;;;5043063;28;20570;-75
2023/11/11 05:15:47;;;;;;;1.57;1.47;;;6.40;99.90;;;;;;5055595;28;20227;-74
2023/11/11 05:18:13;;;;;;;1.90;1.67;;;6.50;99.90;;;;;;5049823;28;20458;-74
2023/11/11 05:20:39;;;;;;;2.10;1.87;;;6.50;99.90;;;;;;5045262;28;20451;-75
2023/11/11 05:23:09;;;;;;;1.53;1.43;;;6.50;99.90;;;;;;5053338;28;20218;-76
2023/11/11 05:25:35;;;;;;;1.40;1.30;;;6.50;99.90;;;;;;5050059;28;20450;-75
2023/11/11 05:28:01;;;;;;;1.40;1.30;;;6.40;99.90;;;;;;5052119;28;20438;-75
2023/11/11 05:30:27;;;;;;;1.37;1.10;;;6.40;99.90;;;;;;5070582;28;20468;-75
2023/11/11 05:32:53;;;;;;;1.20;1.10;;;6.50;99.90;;;;;;5031442;28;20474;-75
2023/11/11 05:35:20;;;;;;;1.63;1.47;;;6.50;99.90;;;;;;5051235;28;20224;-75
2023/11/11 05:37:46;;;;;;;2.60;1.43;;;6.50;99.90;;;;;;5051240;28;20543;-75
2023/11/11 05:40:17;;;;;;;2.73;1.50;;;6.50;99.90;;;;;;5050941;28;20833;-75
2023/11/11 05:42:47;;;;;;;2.63;2.07;;;6.50;99.90;;;;;;5052571;28;20558;-75
2023/11/11 05:45:17;;;;;;;2.50;1.97;;;6.60;99.90;;;;;;5071642;28;20454;-75
2023/11/11 05:47:43;;;;;;;1.70;1.57;;;6.60;99.90;;;;;;5054628;28;20462;-74
2023/11/11 05:50:10;;;;;;;3.83;1.90;;;6.60;99.90;;;;;;5068813;28;20503;-75
2023/11/11 05:52:36;;;;;;;1.50;1.40;;;6.60;99.90;;;;;;5040674;28;20470;-75
2023/11/11 05:55:02;;;;;;;3.47;1.70;;;6.60;99.90;;;;;;5053357;28;20446;-75
2023/11/11 05:57:27;;;;;;;2.40;1.73;;;6.60;99.90;;;;;;5032096;28;20220;-75
2023/11/11 05:59:53;;;;;;;4.50;0.97;;;6.60;99.90;;;;;;5043990;28;20724;-75
2023/11/11 06:02:19;;;;;;;1.60;1.50;;;6.70;99.90;;;;;;5061693;28;20230;-74
2023/11/11 06:04:45;;;;;;;1.90;1.80;;;6.70;99.90;;;;;;5068165;28;20272;-75
2023/11/11 06:07:11;;;;;;;1.47;1.20;;;6.70;99.90;;;;;;5050526;28;20216;-74
2023/11/11 06:09:39;;;;;;;1.33;1.07;;;6.70;99.90;;;;;;5060768;28;20466;-75
2023/11/11 06:12:05;;;;;;;1.33;1.30;;;6.70;99.90;;;;;;5048119;28;20447;-75
2023/11/11 06:14:32;;;;;;;1.77;1.60;;;6.70;99.90;;;;;;5040673;28;20454;-75
2023/11/11 06:16:57;;;;;;;1.50;1.30;;;6.70;99.90;;;;;;5040291;28;20498;-75
2023/11/11 06:19:25;;;;;;;1.27;1.00;;;6.70;99.90;;;;;;5073465;28;20485;-75
2023/11/11 06:21:52;;;;;;;1.70;1.40;;;6.70;99.90;;;;;;5055190;28;20221;-75
2023/11/11 06:24:17;;;;;;;1.20;1.10;;;6.70;99.90;;;;;;5050213;28;20462;-74
2023/11/11 06:26:43;;;;;;;1.50;1.33;;;6.70;99.90;;;;;;5033620;28;20995;-75
2023/11/11 06:29:09;;;;;;;1.43;1.33;;;6.70;99.90;;;;;;5028595;28;20220;-75
2023/11/11 06:31:35;;;;;;;1.20;1.17;;;6.70;99.90;;;;;;5028539;28;20273;-75
2023/11/11 06:34:01;;;;;;;0.97;0.97;;;6.80;99.90;;;;;;5063193;28;20457;-75
2023/11/11 06:36:27;;;;;;;9.43;1.27;;;6.80;99.90;;;;;;5052173;28;20611;-74
2023/11/11 06:38:53;;;;;;;1.60;1.30;;;6.80;99.90;;;;;;5046325;28;20459;-75
2023/11/11 06:41:20;;;;;;;2.07;1.17;;;6.80;99.90;;;;;;5024932;28;20462;-75
2023/11/11 06:43:46;;;;;;;1.23;1.13;;;6.80;99.90;;;;;;5049918;28;20226;-75
2023/11/11 06:46:13;;;;;;;1.30;1.20;;;6.80;99.90;;;;;;5047267;28;20446;-75
2023/11/11 06:48:39;;;;;;;2.43;1.40;;;6.80;99.90;;;;;;5051324;28;20456;-76
2023/11/11 06:51:05;;;;;;;1.47;1.37;;;6.80;99.90;;;;;;5053097;28;20442;-76
2023/11/11 06:53:30;;;;;;;1.33;1.23;;;6.80;99.90;;;;;;5050532;28;20219;-75
2023/11/11 06:55:56;;;;;;;1.40;1.30;;;6.80;99.90;;;;;;5039700;28;20512;-75
2023/11/11 06:58:22;;;;;;;3.23;1.60;;;6.80;99.90;;;;;;5057858;28;20232;-75
2023/11/11 07:00:48;;;;;;;8.10;2.60;;;6.90;99.90;;;;;;5030657;28;20520;-75
2023/11/11 07:03:14;;;;;;;1.93;1.40;;;6.90;99.90;;;;;;5069939;28;20311;-75
2023/11/11 07:05:39;;;;;;;2.67;2.10;;;6.90;99.90;;;;;;5021099;28;20219;-74
2023/11/11 07:08:05;;;;;;;2.00;1.13;;;6.90;99.90;;;;;;5026798;28;20212;-75
2023/11/11 07:10:34;;;;;;;2.13;1.80;;;6.90;99.90;;;;;;5029409;28;20208;-75
2023/11/11 07:13:01;;;;;;;1.80;1.70;;;6.90;99.90;;;;;;5063192;28;20439;-74
2023/11/11 07:15:27;;;;;;;2.83;2.30;;;6.90;99.90;;;;;;5070716;28;20473;-74
2023/11/11 07:17:53;;;;;;;3.90;1.90;;;6.90;99.90;;;;;;5018254;28;20450;-75
2023/11/11 07:20:21;;;;;;;2.00;1.80;;;6.80;99.90;;;;;;5051088;28;20462;-75
2023/11/11 07:22:51;;;;;;;1.70;1.60;;;6.80;99.90;;;;;;5070418;28;20533;-75
2023/11/11 07:25:18;;;;;;;2.37;2.17;;;6.80;99.90;;;;;;5051353;28;20451;-75
2023/11/11 07:27:44;;;;;;;3.47;2.40;;;6.80;99.90;;;;;;5056263;28;20469;-75
2023/11/11 07:30:10;;;;;;;2.30;2.10;;;6.80;99.90;;;;;;5051564;28;20859;-75
2023/11/11 07:32:40;;;;;;;2.37;2.17;;;6.80;99.90;;;;;;5048562;28;20219;-75
2023/11/11 07:35:10;;;;;;;3.07;1.90;;;6.80;99.90;;;;;;5044900;28;20468;-75
2023/11/11 07:37:36;;;;;;;2.67;2.20;;;6.90;99.90;;;;;;5050615;28;20466;-75
2023/11/11 07:40:04;;;;;;;2.00;1.90;;;6.90;99.90;;;;;;5043202;28;20457;-75
2023/11/11 07:42:32;;;;;;;3.53;2.27;;;7.00;99.90;;;;;;5048140;28;20227;-75
2023/11/11 07:44:59;;;;;;;11.10;1.93;;;7.00;99.90;;;;;;5029800;28;20475;-75
2023/11/11 07:47:25;;;;;;;2.93;2.00;;;7.10;99.90;;;;;;5027038;28;21011;-75
2023/11/11 07:49:50;;;;;;;2.90;1.70;;;7.10;99.90;;;;;;5047633;28;20549;-75
2023/11/11 07:52:16;;;;;;;2.53;2.33;;;7.20;99.90;;;;;;5059573;28;20536;-76
2023/11/11 07:54:42;;;;;;;3.27;2.13;;;7.20;99.90;;;;;;5066320;28;20590;-76
2023/11/11 07:57:07;;;;;;;4.23;2.50;;;7.30;99.90;;;;;;5020408;28;20263;-75
2023/11/11 07:59:39;;;;;;;2.23;1.80;;;7.30;99.90;;;;;;5061220;28;20231;-75
2023/11/11 08:02:05;;;;;;;2.97;2.40;;;7.40;99.90;;;;;;5062198;28;20216;-76
2023/11/11 08:04:31;;;;;;;2.37;2.17;;;7.40;99.90;;;;;;5063787;28;20457;-74
2023/11/11 08:06:57;;;;;;;3.23;2.70;;;7.50;99.90;;;;;;5048681;28;20529;-76
2023/11/11 08:09:23;;;;;;;3.07;2.47;;;7.50;99.90;;;;;;5049932;28;20216;-75
2023/11/11 08:11:49;;;;;;;2.97;2.40;;;7.50;99.90;;;;;;5067048;28;20219;-76
2023/11/11 08:14:15;;;;;;;3.23;2.93;;;7.50;99.90;;;;;;5032384;28;20220;-76
2023/11/11 08:16:40;;;;;;;3.27;3.00;;;7.60;99.90;;;;;;5072915;28;20472;-75
2023/11/11 08:19:07;;;;;;;8.80;2.83;;;7.50;99.90;;;;;;5035050;28;20454;-76
2023/11/11 08:21:34;;;;;;;2.40;2.23;;;7.50;99.90;;;;;;5072747;28;20216;-75
2023/11/11 08:24:03;;;;;;;3.83;2.10;;;7.50;99.90;;;;;;5063571;28;20451;-75
2023/11/11 08:26:29;;;;;;;6.40;2.53;;;7.50;99.90;;;;;;5067570;28;20462;-75
2023/11/11 08:28:56;;;;;;;2.60;2.40;;;7.50;99.90;;;;;;5046027;28;21024;-75
2023/11/11 08:31:22;;;;;;;2.77;2.50;;;7.50;99.90;;;;;;5034177;28;20636;-75
2023/11/11 08:33:47;;;;;;;5.07;2.90;;;7.50;99.90;;;;;;5056912;28;20442;-75
2023/11/11 08:36:13;;;;;;;2.57;2.30;;;7.50;99.90;;;;;;5079426;28;20320;-75
2023/11/11 08:38:39;;;;;;;3.57;2.23;;;7.40;99.90;;;;;;5056570;28;20223;-75
2023/11/11 08:41:04;;;;;;;3.37;2.20;;;7.50;99.90;;;;;;5050563;28;20216;-76
2023/11/11 08:43:30;;;;;;;2.67;2.47;;;7.50;99.90;;;;;;5049542;28;20215;-75
2023/11/11 08:45:56;;;;;;;2.47;2.27;;;7.50;99.90;;;;;;5043208;28;20298;-75
2023/11/11 08:48:22;;;;;;;3.60;2.63;;;7.50;99.90;;;;;;5046572;28;20265;-75
2023/11/11 08:50:48;;;;;;;3.77;2.63;;;7.50;99.90;;;;;;5039532;28;20231;-75
2023/11/11 08:53:14;;;;;;;5.60;2.70;;;7.50;99.90;;;;;;5060876;28;20460;-75
2023/11/11 08:55:39;;;;;;;5.00;2.87;;;7.60;99.90;;;;;;5048382;28;20553;-75
2023/11/11 08:58:05;;;;;;;3.97;2.80;;;7.60;99.90;;;;;;5069168;28;20582;-75
2023/11/11 09:00:33;;;;;;;3.23;2.93;;;7.60;99.90;;;;;;5069024;28;20214;-75
2023/11/11 09:02:58;;;;;;;4.67;3.90;;;7.60;99.90;;;;;;5054416;28;20266;-75
2023/11/11 09:05:25;;;;;;;4.23;3.87;;;7.60;99.90;;;;;;5071613;28;20923;-75
2023/11/11 09:07:51;;;;;;;6.60;5.20;;;7.60;99.90;;;;;;5076899;28;20215;-75
2023/11/11 09:10:16;;;;;;;8.67;5.57;;;7.60;99.90;;;;;;5053089;28;20467;-73
2023/11/11 09:12:42;;;;;;;13.00;9.40;;;7.70;99.90;;;;;;5052814;28;20216;-75
2023/11/11 09:15:10;;;;;;;14.87;8.60;;;7.60;99.90;;;;;;5050123;28;20215;-76
2023/11/11 09:17:40;;;;;;;18.80;10.00;;;7.60;99.90;;;;;;5071874;28;20228;-75
2023/11/11 09:20:07;;;;;;;26.30;13.17;;;7.60;99.90;;;;;;5047435;28;20438;-75
2023/11/11 09:22:35;;;;;;;17.47;10.50;;;7.60;99.90;;;;;;5048977;28;20493;-75
2023/11/11 09:25:01;;;;;;;20.10;11.50;;;7.60;99.90;;;;;;5051485;28;20450;-75
2023/11/11 09:27:26;;;;;;;8.40;5.73;;;7.60;99.90;;;;;;5036224;28;20458;-75
2023/11/11 09:29:53;;;;;;;5.33;4.20;;;7.60;99.90;;;;;;5065496;28;21035;-75
2023/11/11 09:32:19;;;;;;;3.60;3.27;;;7.70;99.90;;;;;;5067832;28;20701;-75
2023/11/11 09:34:48;;;;;;;4.30;3.53;;;7.70;99.90;;;;;;5035158;28;20458;-76
2023/11/11 09:37:14;;;;;;;2.77;2.57;;;7.60;99.90;;;;;;5053117;28;20247;-75
2023/11/11 09:39:39;;;;;;;2.27;2.07;;;7.60;99.90;;;;;;5051711;28;20507;-75
2023/11/11 09:42:07;;;;;;;4.30;2.87;;;7.60;99.90;;;;;;5051050;28;20227;-76
2023/11/11 09:44:33;;;;;;;3.63;2.57;;;7.60;99.90;;;;;;5035171;28;20215;-76
2023/11/11 09:47:00;;;;;;;4.97;4.17;;;7.60;99.90;;;;;;5052190;28;20473;-75
2023/11/11 09:49:28;;;;;;;13.07;10.80;;;7.60;99.90;;;;;;5050337;28;20467;-76
2023/11/11 09:51:56;;;;;;;18.80;13.60;;;7.50;99.90;;;;;;5029659;28;20496;-76
2023/11/11 09:54:22;;;;;;;16.97;13.03;;;7.50;99.90;;;;;;5042656;28;20450;-75
2023/11/11 09:56:49;;;;;;;26.07;17.03;;;7.50;99.90;;;;;;5036343;28;21001;-75
2023/11/11 09:59:16;;;;;;;36.33;22.13;;;7.50;99.90;;;;;;5033478;28;20467;-72
2023/11/11 10:01:44;;;;;;;29.20;19.40;;;7.50;99.90;;;;;;5046396;28;20541;-75
2023/11/11 10:04:10;;;;;;;21.70;16.13;;;7.50;99.90;;;;;;5048918;28;20474;-75
2023/11/11 10:06:36;;;;;;;18.37;14.93;;;7.50;99.90;;;;;;5027641;28;20450;-75
2023/11/11 10:09:04;;;;;;;14.53;12.83;;;7.60;99.90;;;;;;5036099;28;20306;-75
2023/11/11 10:11:33;;;;;;;8.67;7.90;;;7.60;99.90;;;;;;5034099;28;20451;-76
2023/11/11 10:13:59;;;;;;;5.40;4.27;;;7.60;99.90;;;;;;5016147;28;20448;-75
2023/11/11 10:16:25;;;;;;;3.30;3.00;;;7.60;99.90;;;;;;5054274;28;20470;-74
2023/11/11 10:18:58;;;;;;;2.70;2.50;;;7.60;99.90;;;;;;5013129;28;20216;-75
2023/11/11 10:21:24;;;;;;;2.57;2.37;;;7.60;99.90;;;;;;5036769;28;20455;-74
2023/11/11 10:23:52;;;;;;;2.20;1.87;;;7.60;99.90;;;;;;5041897;28;20450;-75
2023/11/11 10:26:20;;;;;;;2.93;2.20;;;7.60;99.90;;;;;;5046744;28;20470;-74
2023/11/11 10:28:50;;;;;;;2.60;2.27;;;7.60;99.90;;;;;;5049762;28;20475;-75
2023/11/11 10:31:18;;;;;;;5.53;1.80;;;7.70;99.90;;;;;;5048835;28;20494;-75
2023/11/11 10:33:44;;;;;;;1.50;1.40;;;7.70;99.90;;;;;;5065053;28;20458;-75
2023/11/11 10:36:11;;;;;;;1.63;1.33;;;7.70;99.90;;;;;;5070951;28;20865;-75
2023/11/11 10:38:41;;;;;;;1.57;1.47;;;7.70;99.90;;;;;;5022386;28;20496;-75
2023/11/11 10:41:07;;;;;;;1.67;1.40;;;7.70;99.90;;;;;;5049506;28;20959;-76
2023/11/11 10:43:34;;;;;;;1.23;1.13;;;7.70;99.90;;;;;;5053729;28;20545;-76
2023/11/11 10:46:00;;;;;;;1.40;1.30;;;7.70;99.90;;;;;;5030675;28;21147;-75
2023/11/11 10:48:25;;;;;;;2.07;1.50;;;7.70;99.90;;;;;;5039260;28;20451;-76
2023/11/11 10:50:52;;;;;;;1.60;1.50;;;7.70;99.90;;;;;;5058825;28;20453;-75
2023/11/11 10:53:19;;;;;;;1.83;1.30;;;7.80;99.90;;;;;;5054198;28;20208;-75
2023/11/11 10:55:52;;;;;;;1.63;1.53;;;7.80;99.90;;;;;;5052279;28;20535;-75
2023/11/11 10:58:19;;;;;;;1.27;1.20;;;7.80;99.90;;;;;;5041093;28;20895;-75
2023/11/11 11:00:49;;;;;;;1.80;1.70;;;7.80;99.90;;;;;;5015275;28;20505;-75
2023/11/11 11:03:18;;;;;;;2.23;1.30;;;7.80;99.90;;;;;;5031397;28;20517;-76
2023/11/11 11:06:06;;;;;;;1.13;1.13;;;7.80;99.90;;;;;;5030146;28;20447;-75
2023/11/11 11:09:00;;;;;;;1.60;1.50;;;7.80;99.90;;;;;;5038355;28;20500;-76
2023/11/11 11:11:44;;;;;;;2.40;1.57;;;7.80;99.90;;;;;;5048517;28;20459;-76
2023/11/11 11:14:39;;;;;;;1.13;0.97;;;7.80;99.90;;;;;;5033384;28;20471;-75
2023/11/11 11:17:08;;;;;;;1.23;0.93;;;7.80;99.90;;;;;;5009364;28;20531;-76
2023/11/11 11:20:00;;;;;;;1.53;1.43;;;7.90;99.90;;;;;;5006386;28;20451;-76
2023/11/11 11:22:39;;;;;;;1.10;1.00;;;7.90;99.90;;;;;;5053655;28;20834;-75
2023/11/11 11:25:29;;;;;;;2.70;1.67;;;7.90;99.90;;;;;;5070507;28;20457;-75
2023/11/11 11:28:14;;;;;;;1.27;1.27;;;7.90;99.90;;;;;;5030382;28;20826;-76
2023/11/11 11:30:50;;;;;;;2.90;1.80;;;7.90;99.90;;;;;;5062879;28;20509;-75
2023/11/11 11:33:21;;;;;;;2.17;1.30;;;7.90;99.90;;;;;;5019974;28;20463;-76
2023/11/11 11:35:48;;;;;;;1.00;1.00;;;8.00;99.90;;;;;;5043036;28;20514;-75
2023/11/11 11:38:34;;;;;;;1.47;1.30;;;8.00;99.90;;;;;;5035482;28;20505;-76
2023/11/11 11:41:00;;;;;;;1.30;1.20;;;8.00;99.90;;;;;;5050626;28;20449;-76
2023/11/11 11:43:31;;;;;;;1.10;1.10;;;8.00;99.90;;;;;;5050508;28;20461;-75
2023/11/11 11:45:57;;;;;;;1.73;1.37;;;8.00;99.90;;;;;;5049649;28;20219;-75
2023/11/11 11:48:28;;;;;;;1.40;1.30;;;8.00;99.90;;;;;;5050940;28;20941;-76
2023/11/11 11:51:08;;;;;;;1.10;1.10;;;8.00;99.90;;;;;;5049114;28;20461;-75
2023/11/11 11:53:35;;;;;;;7.20;2.23;;;8.00;99.90;;;;;;5067025;28;20446;-75
2023/11/11 11:56:01;;;;;;;1.13;1.13;;;8.00;99.90;;;;;;5037521;28;20455;-75
2023/11/11 11:58:27;;;;;;;1.20;1.10;;;8.00;99.90;;;;;;5047243;28;20454;-75
2023/11/11 12:00:53;;;;;;;1.30;1.20;;;8.00;99.90;;;;;;5019915;28;21278;-76
2023/11/11 12:03:19;;;;;;;1.20;1.10;;;8.00;99.90;;;;;;5068286;28;20458;-75
2023/11/11 12:05:49;;;;;;;1.63;0.90;;;8.00;99.90;;;;;;5065919;28;20277;-75
2023/11/11 12:08:15;;;;;;;1.40;1.30;;;8.00;99.90;;;;;;5056696;28;20984;-73
2023/11/11 12:10:45;;;;;;;0.60;0.57;;;8.00;99.90;;;;;;5049710;28;20458;-73
2023/11/11 12:13:12;;;;;;;1.50;1.40;;;8.00;99.90;;;;;;5055584;28;20692;-75
2023/11/11 12:15:39;;;;;;;3.40;1.20;;;8.00;99.90;;;;;;5052530;28;20877;-76
2023/11/11 12:18:09;;;;;;;2.20;1.73;;;8.00;99.90;;;;;;5046867;28;20442;-75
2023/11/11 12:20:42;;;;;;;2.30;2.10;;;8.00;99.90;;;;;;5060113;28;20446;-76
2023/11/11 12:23:11;;;;;;;5.70;2.80;;;8.00;99.90;;;;;;5067727;28;20438;-74
2023/11/11 12:25:39;;;;;;;1.90;1.67;;;8.10;99.90;;;;;;5067062;28;20477;-75
2023/11/11 12:28:06;;;;;;;2.20;1.57;;;8.10;99.90;;;;;;5033619;28;20446;-75
2023/11/11 12:30:33;;;;;;;1.70;1.60;;;8.10;99.90;;;;;;5026730;28;20462;-75
2023/11/11 12:33:03;;;;;;;1.30;1.10;;;8.10;99.90;;;;;;5067222;28;20477;-76
2023/11/11 12:35:31;;;;;;;1.70;1.20;;;8.10;99.90;;;;;;5050017;28;20443;-75
2023/11/11 12:37:57;;;;;;;1.20;1.10;;;8.10;99.90;;;;;;5032319;28;20477;-75
2023/11/11 12:40:33;;;;;;;2.00;1.37;;;8.10;99.90;;;;;;5046169;28;20450;-75
2023/11/11 12:42:59;;;;;;;1.30;1.20;;;8.20;99.90;;;;;;5051270;28;20471;-75
2023/11/11 12:45:25;;;;;;;1.30;1.20;;;8.20;99.90;;;;;;5073330;28;20442;-74
2023/11/11 12:47:52;;;;;;;1.80;1.60;;;8.20;99.90;;;;;;5054998;28;20786;-74
2023/11/11 12:50:29;;;;;;;2.10;1.30;;;8.20;99.90;;;;;;5053210;28;20233;-73
2023/11/11 12:53:03;;;;;;;1.60;1.50;;;8.20;99.90;;;;;;5033156;28;20834;-76
2023/11/11 12:55:30;;;;;;;3.57;1.60;;;8.20;99.90;;;;;;5032207;28;20442;-75